Anderson, Nebraska
Current Conditions -  °F | °C
As of 9:55 PM on Saturday 25 Oct 2014 (Local Time) from KHDE Reporting Station
Clear Clear  
Wind Chill: 15°   Ceiling: Unl
Heat Index: 15°   Visibility: 10mi
Dew Point:   Wind: 13mph
Humidity: 64%   Direction: 90°E
Pressure: 29.97"   Gusts: NA
Location:  40.5251°N, 99.2414°W
Report Text: KHDE 260255Z AUTO 09011KT 10SM CLR 15/08 A2997 RMK AO2 T01450078
Loading
Personal Weather Stations






























Interactive Weather Map
Tropical Storm Tracking
New forecast layout! Learn more

10-Day Weather Forecast

Advertisements
Track Severe Weather on mobile